sensor_id;sensor_type;location;lat;lon;timestamp;pressure;altitude;pressure_sealevel;temperature;humidity
34237;BME280;20501;45.956;13.632;2023-04-19T00:02:16;100727.81;;;14.90;58.71
34237;BME280;20501;45.956;13.632;2023-04-19T00:04:43;100731.06;;;15.01;57.88
34237;BME280;20501;45.956;13.632;2023-04-19T00:07:09;100736.09;;;14.80;58.72
34237;BME280;20501;45.956;13.632;2023-04-19T00:09:35;100724.19;;;14.12;60.32
34237;BME280;20501;45.956;13.632;2023-04-19T00:12:01;100733.59;;;14.26;59.73
34237;BME280;20501;45.956;13.632;2023-04-19T00:14:27;100729.66;;;14.46;59.16
34237;BME280;20501;45.956;13.632;2023-04-19T00:16:52;100729.72;;;14.97;58.44
34237;BME280;20501;45.956;13.632;2023-04-19T00:19:18;100722.16;;;14.75;57.95
34237;BME280;20501;45.956;13.632;2023-04-19T00:21:43;100713.88;;;14.58;59.18
34237;BME280;20501;45.956;13.632;2023-04-19T00:24:09;100722.69;;;14.17;60.08
34237;BME280;20501;45.956;13.632;2023-04-19T00:26:34;100727.78;;;14.47;59.88
34237;BME280;20501;45.956;13.632;2023-04-19T00:28:59;100721.25;;;15.00;58.23
34237;BME280;20501;45.956;13.632;2023-04-19T00:31:25;100726.72;;;14.74;59.07
34237;BME280;20501;45.956;13.632;2023-04-19T00:33:50;100707.13;;;15.05;58.11
34237;BME280;20501;45.956;13.632;2023-04-19T00:36:16;100714.34;;;14.11;61.25
34237;BME280;20501;45.956;13.632;2023-04-19T00:38:41;100723.25;;;14.64;59.48
34237;BME280;20501;45.956;13.632;2023-04-19T00:41:06;100715.09;;;14.98;57.99
34237;BME280;20501;45.956;13.632;2023-04-19T00:43:32;100714.50;;;14.09;60.57
34237;BME280;20501;45.956;13.632;2023-04-19T00:45:57;100707.03;;;14.72;59.37
34237;BME280;20501;45.956;13.632;2023-04-19T00:48:23;100708.66;;;14.30;60.45
34237;BME280;20501;45.956;13.632;2023-04-19T00:50:49;100704.59;;;13.37;64.19
34237;BME280;20501;45.956;13.632;2023-04-19T00:53:15;100707.13;;;13.21;64.56
34237;BME280;20501;45.956;13.632;2023-04-19T00:55:41;100714.69;;;13.89;61.88
34237;BME280;20501;45.956;13.632;2023-04-19T00:58:08;100718.91;;;14.10;61.18
34237;BME280;20501;45.956;13.632;2023-04-19T01:00:34;100706.59;;;14.59;60.16
34237;BME280;20501;45.956;13.632;2023-04-19T01:02:59;100712.19;;;13.52;62.91
34237;BME280;20501;45.956;13.632;2023-04-19T01:05:25;100713.81;;;14.42;60.58
34237;BME280;20501;45.956;13.632;2023-04-19T01:07:51;100710.38;;;13.78;62.42
34237;BME280;20501;45.956;13.632;2023-04-19T01:10:17;100714.94;;;14.31;61.09
34237;BME280;20501;45.956;13.632;2023-04-19T01:12:42;100701.38;;;13.78;63.06
34237;BME280;20501;45.956;13.632;2023-04-19T01:15:08;100704.44;;;14.01;62.20
34237;BME280;20501;45.956;13.632;2023-04-19T01:17:33;100701.38;;;14.04;61.30
34237;BME280;20501;45.956;13.632;2023-04-19T01:20:03;100699.97;;;14.18;59.77
34237;BME280;20501;45.956;13.632;2023-04-19T01:22:32;100699.84;;;13.39;63.74
34237;BME280;20501;45.956;13.632;2023-04-19T01:24:57;100704.09;;;14.04;61.84
34237;BME280;20501;45.956;13.632;2023-04-19T01:27:23;100704.63;;;12.63;66.63
34237;BME280;20501;45.956;13.632;2023-04-19T01:29:48;100701.00;;;12.73;66.76
34237;BME280;20501;45.956;13.632;2023-04-19T01:32:14;100694.88;;;13.97;62.38
34237;BME280;20501;45.956;13.632;2023-04-19T01:34:39;100694.19;;;13.69;63.54
34237;BME280;20501;45.956;13.632;2023-04-19T01:37:06;100690.22;;;12.91;66.58
34237;BME280;20501;45.956;13.632;2023-04-19T01:39:32;100685.63;;;12.73;67.71
34237;BME280;20501;45.956;13.632;2023-04-19T01:41:57;100698.94;;;13.49;64.58
34237;BME280;20501;45.956;13.632;2023-04-19T01:44:23;100697.78;;;13.96;63.15
34237;BME280;20501;45.956;13.632;2023-04-19T01:46:48;100698.84;;;14.37;61.38
34237;BME280;20501;45.956;13.632;2023-04-19T01:49:13;100685.31;;;14.80;59.81
34237;BME280;20501;45.956;13.632;2023-04-19T01:51:39;100690.44;;;15.00;59.21
34237;BME280;20501;45.956;13.632;2023-04-19T01:54:04;100690.47;;;15.08;58.84
34237;BME280;20501;45.956;13.632;2023-04-19T01:56:30;100685.06;;;14.31;61.37
34237;BME280;20501;45.956;13.632;2023-04-19T01:58:57;100679.34;;;14.07;62.60
34237;BME280;20501;45.956;13.632;2023-04-19T02:01:22;100683.28;;;13.42;64.88
34237;BME280;20501;45.956;13.632;2023-04-19T02:03:48;100674.88;;;13.18;67.26
34237;BME280;20501;45.956;13.632;2023-04-19T02:06:13;100669.72;;;13.42;65.06
34237;BME280;20501;45.956;13.632;2023-04-19T02:08:40;100676.66;;;14.16;62.89
34237;BME280;20501;45.956;13.632;2023-04-19T02:11:10;100668.28;;;14.70;60.77
34237;BME280;20501;45.956;13.632;2023-04-19T02:13:36;100672.97;;;13.10;66.65
34237;BME280;20501;45.956;13.632;2023-04-19T02:16:02;100674.19;;;12.97;66.94
34237;BME280;20501;45.956;13.632;2023-04-19T02:18:28;100680.59;;;12.96;66.29
34237;BME280;20501;45.956;13.632;2023-04-19T02:20:57;100671.03;;;13.83;63.02
34237;BME280;20501;45.956;13.632;2023-04-19T02:23:23;100670.00;;;13.39;64.56
34237;BME280;20501;45.956;13.632;2023-04-19T02:25:50;100663.72;;;13.03;66.01
34237;BME280;20501;45.956;13.632;2023-04-19T02:28:15;100661.25;;;13.27;65.17
34237;BME280;20501;45.956;13.632;2023-04-19T02:30:41;100661.31;;;12.99;65.98
34237;BME280;20501;45.956;13.632;2023-04-19T02:33:06;100657.28;;;13.58;64.42
34237;BME280;20501;45.956;13.632;2023-04-19T02:35:32;100659.00;;;14.54;60.86
34237;BME280;20501;45.956;13.632;2023-04-19T02:37:59;100664.31;;;13.95;63.46
34237;BME280;20501;45.956;13.632;2023-04-19T02:40:24;100665.50;;;13.92;63.72
34237;BME280;20501;45.956;13.632;2023-04-19T02:42:51;100659.06;;;14.28;62.08
34237;BME280;20501;45.956;13.632;2023-04-19T02:45:16;100657.66;;;13.63;64.11
34237;BME280;20501;45.956;13.632;2023-04-19T02:47:42;100663.22;;;14.06;62.99
34237;BME280;20501;45.956;13.632;2023-04-19T02:50:07;100656.00;;;13.44;65.77
34237;BME280;20501;45.956;13.632;2023-04-19T02:52:33;100653.44;;;13.42;65.91
34237;BME280;20501;45.956;13.632;2023-04-19T02:54:59;100657.09;;;13.77;65.25
34237;BME280;20501;45.956;13.632;2023-04-19T02:57:24;100653.97;;;13.46;66.04
34237;BME280;20501;45.956;13.632;2023-04-19T02:59:49;100652.81;;;13.30;66.70
34237;BME280;20501;45.956;13.632;2023-04-19T03:02:15;100643.16;;;14.42;61.92
34237;BME280;20501;45.956;13.632;2023-04-19T03:04:40;100641.25;;;14.68;60.86
34237;BME280;20501;45.956;13.632;2023-04-19T03:07:08;100644.97;;;13.09;68.23
34237;BME280;20501;45.956;13.632;2023-04-19T03:09:34;100639.84;;;13.87;64.12
34237;BME280;20501;45.956;13.632;2023-04-19T03:11:59;100644.41;;;14.13;63.04
34237;BME280;20501;45.956;13.632;2023-04-19T03:14:25;100631.06;;;14.28;63.70
34237;BME280;20501;45.956;13.632;2023-04-19T03:16:50;100635.16;;;14.83;60.67
34237;BME280;20501;45.956;13.632;2023-04-19T03:19:16;100626.44;;;13.59;65.87
34237;BME280;20501;45.956;13.632;2023-04-19T03:21:41;100631.19;;;14.61;61.44
34237;BME280;20501;45.956;13.632;2023-04-19T03:24:07;100626.91;;;13.36;66.83
34237;BME280;20501;45.956;13.632;2023-04-19T03:26:32;100622.63;;;13.34;66.82
34237;BME280;20501;45.956;13.632;2023-04-19T03:28:58;100628.41;;;14.09;63.62
34237;BME280;20501;45.956;13.632;2023-04-19T03:31:23;100616.88;;;14.59;61.74
34237;BME280;20501;45.956;13.632;2023-04-19T03:33:49;100623.31;;;13.54;66.68
34237;BME280;20501;45.956;13.632;2023-04-19T03:36:15;100611.56;;;13.98;64.86
34237;BME280;20501;45.956;13.632;2023-04-19T03:38:40;100612.50;;;13.88;65.59
34237;BME280;20501;45.956;13.632;2023-04-19T03:41:17;100612.47;;;13.36;67.35
34237;BME280;20501;45.956;13.632;2023-04-19T03:43:42;100604.31;;;12.45;70.63
34237;BME280;20501;45.956;13.632;2023-04-19T03:46:08;100614.41;;;13.25;67.89
34237;BME280;20501;45.956;13.632;2023-04-19T03:48:34;100621.59;;;13.35;67.51
34237;BME280;20501;45.956;13.632;2023-04-19T03:50:59;100615.66;;;13.49;66.46
34237;BME280;20501;45.956;13.632;2023-04-19T03:53:25;100618.84;;;12.72;68.29
34237;BME280;20501;45.956;13.632;2023-04-19T03:55:50;100616.06;;;13.54;65.74
34237;BME280;20501;45.956;13.632;2023-04-19T03:58:16;100618.13;;;13.24;67.04
34237;BME280;20501;45.956;13.632;2023-04-19T04:00:41;100608.13;;;14.30;63.16
34237;BME280;20501;45.956;13.632;2023-04-19T04:03:07;100609.06;;;14.64;61.75
34237;BME280;20501;45.956;13.632;2023-04-19T04:05:33;100612.38;;;14.33;62.58
34237;BME280;20501;45.956;13.632;2023-04-19T04:07:59;100608.69;;;13.99;63.70
34237;BME280;20501;45.956;13.632;2023-04-19T04:10:24;100616.63;;;13.66;64.85
34237;BME280;20501;45.956;13.632;2023-04-19T04:12:50;100613.88;;;12.85;66.86
34237;BME280;20501;45.956;13.632;2023-04-19T04:15:15;100608.44;;;13.58;64.66
34237;BME280;20501;45.956;13.632;2023-04-19T04:17:40;100610.44;;;13.38;65.64
34237;BME280;20501;45.956;13.632;2023-04-19T04:20:06;100607.47;;;13.41;65.39
34237;BME280;20501;45.956;13.632;2023-04-19T04:22:33;100612.34;;;13.37;64.83
34237;BME280;20501;45.956;13.632;2023-04-19T04:24:58;100609.16;;;12.69;65.60
34237;BME280;20501;45.956;13.632;2023-04-19T04:27:25;100612.47;;;13.18;64.26
34237;BME280;20501;45.956;13.632;2023-04-19T04:29:51;100608.94;;;12.99;65.58
34237;BME280;20501;45.956;13.632;2023-04-19T04:32:16;100610.56;;;12.74;65.32
34237;BME280;20501;45.956;13.632;2023-04-19T04:34:47;100611.47;;;13.37;64.28
34237;BME280;20501;45.956;13.632;2023-04-19T04:37:12;100604.13;;;12.57;65.66
34237;BME280;20501;45.956;13.632;2023-04-19T04:39:38;100609.81;;;12.99;66.34
34237;BME280;20501;45.956;13.632;2023-04-19T04:42:05;100610.63;;;13.54;62.83
34237;BME280;20501;45.956;13.632;2023-04-19T04:44:35;100608.16;;;13.07;64.41
34237;BME280;20501;45.956;13.632;2023-04-19T04:47:01;100609.25;;;13.85;63.45
34237;BME280;20501;45.956;13.632;2023-04-19T04:49:28;100611.66;;;14.22;61.69
34237;BME280;20501;45.956;13.632;2023-04-19T04:51:54;100608.91;;;13.35;64.57
34237;BME280;20501;45.956;13.632;2023-04-19T04:54:20;100608.47;;;13.66;63.92
34237;BME280;20501;45.956;13.632;2023-04-19T04:56:45;100609.50;;;14.34;61.69
34237;BME280;20501;45.956;13.632;2023-04-19T04:59:11;100610.44;;;14.51;61.18
34237;BME280;20501;45.956;13.632;2023-04-19T05:01:36;100615.78;;;13.92;62.88
34237;BME280;20501;45.956;13.632;2023-04-19T05:04:02;100609.13;;;13.86;63.53
34237;BME280;20501;45.956;13.632;2023-04-19T05:06:27;100614.88;;;12.48;68.72
34237;BME280;20501;45.956;13.632;2023-04-19T05:08:53;100623.50;;;12.62;67.60
34237;BME280;20501;45.956;13.632;2023-04-19T05:11:19;100622.06;;;12.58;67.73
34237;BME280;20501;45.956;13.632;2023-04-19T05:13:44;100620.03;;;13.68;64.38
34237;BME280;20501;45.956;13.632;2023-04-19T05:16:10;100621.56;;;13.44;65.15
34237;BME280;20501;45.956;13.632;2023-04-19T05:18:35;100615.75;;;14.27;62.31
34237;BME280;20501;45.956;13.632;2023-04-19T05:21:00;100614.16;;;14.50;60.96
34237;BME280;20501;45.956;13.632;2023-04-19T05:23:26;100619.03;;;13.69;63.93
34237;BME280;20501;45.956;13.632;2023-04-19T05:25:51;100614.41;;;13.61;64.11
34237;BME280;20501;45.956;13.632;2023-04-19T05:28:17;100610.72;;;13.71;64.17
34237;BME280;20501;45.956;13.632;2023-04-19T05:30:42;100613.16;;;13.82;63.67
34237;BME280;20501;45.956;13.632;2023-04-19T05:33:08;100611.94;;;14.11;60.73
34237;BME280;20501;45.956;13.632;2023-04-19T05:35:33;100616.66;;;13.48;63.53
34237;BME280;20501;45.956;13.632;2023-04-19T05:37:59;100616.44;;;13.23;64.28
34237;BME280;20501;45.956;13.632;2023-04-19T05:40:24;100614.19;;;13.19;64.59
34237;BME280;20501;45.956;13.632;2023-04-19T05:42:50;100619.84;;;13.43;63.66
34237;BME280;20501;45.956;13.632;2023-04-19T05:45:15;100621.97;;;13.76;63.65
34237;BME280;20501;45.956;13.632;2023-04-19T05:47:43;100614.56;;;14.21;62.21
34237;BME280;20501;45.956;13.632;2023-04-19T05:50:08;100617.63;;;14.26;61.20
34237;BME280;20501;45.956;13.632;2023-04-19T05:52:34;100617.28;;;14.29;61.47
34237;BME280;20501;45.956;13.632;2023-04-19T05:54:59;100613.25;;;13.99;62.17
34237;BME280;20501;45.956;13.632;2023-04-19T05:57:25;100618.16;;;13.95;62.17
34237;BME280;20501;45.956;13.632;2023-04-19T05:59:51;100622.41;;;13.45;63.23
34237;BME280;20501;45.956;13.632;2023-04-19T06:02:16;100619.81;;;14.22;61.67
34237;BME280;20501;45.956;13.632;2023-04-19T06:04:42;100621.13;;;13.84;63.41
34237;BME280;20501;45.956;13.632;2023-04-19T06:07:07;100618.56;;;13.74;63.97
34237;BME280;20501;45.956;13.632;2023-04-19T06:09:33;100614.66;;;13.50;63.71
34237;BME280;20501;45.956;13.632;2023-04-19T06:11:58;100621.03;;;14.36;61.68
34237;BME280;20501;45.956;13.632;2023-04-19T06:14:26;100627.66;;;14.68;60.67
34237;BME280;20501;45.956;13.632;2023-04-19T06:16:52;100626.31;;;14.73;60.61
34237;BME280;20501;45.956;13.632;2023-04-19T06:19:18;100618.69;;;14.84;60.15
34237;BME280;20501;45.956;13.632;2023-04-19T06:21:43;100618.56;;;14.51;61.27
34237;BME280;20501;45.956;13.632;2023-04-19T06:24:09;100626.81;;;14.25;62.49
34237;BME280;20501;45.956;13.632;2023-04-19T06:26:35;100627.25;;;13.59;64.62
34237;BME280;20501;45.956;13.632;2023-04-19T06:29:00;100626.81;;;13.99;63.44
34237;BME280;20501;45.956;13.632;2023-04-19T06:31:25;100624.28;;;13.44;64.83
34237;BME280;20501;45.956;13.632;2023-04-19T06:33:51;100623.97;;;13.74;64.14
34237;BME280;20501;45.956;13.632;2023-04-19T06:36:16;100622.63;;;13.78;63.88
34237;BME280;20501;45.956;13.632;2023-04-19T06:38:42;100622.06;;;13.66;64.24
34237;BME280;20501;45.956;13.632;2023-04-19T06:41:09;100617.53;;;14.52;61.64
34237;BME280;20501;45.956;13.632;2023-04-19T06:43:34;100618.28;;;13.59;64.84
34237;BME280;20501;45.956;13.632;2023-04-19T06:46:00;100624.44;;;13.96;63.88
34237;BME280;20501;45.956;13.632;2023-04-19T06:48:26;100619.50;;;14.68;61.03
34237;BME280;20501;45.956;13.632;2023-04-19T06:50:53;100616.31;;;14.90;60.02
34237;BME280;20501;45.956;13.632;2023-04-19T06:53:18;100613.25;;;14.93;60.05
34237;BME280;20501;45.956;13.632;2023-04-19T06:55:44;100616.16;;;14.99;59.62
34237;BME280;20501;45.956;13.632;2023-04-19T06:58:09;100614.47;;;14.47;61.35
34237;BME280;20501;45.956;13.632;2023-04-19T07:00:35;100614.91;;;13.65;64.39
34237;BME280;20501;45.956;13.632;2023-04-19T07:03:01;100613.16;;;13.38;65.51
34237;BME280;20501;45.956;13.632;2023-04-19T07:05:27;100614.16;;;13.55;65.30
34237;BME280;20501;45.956;13.632;2023-04-19T07:07:53;100623.50;;;13.52;64.16
34237;BME280;20501;45.956;13.632;2023-04-19T07:10:18;100619.28;;;13.58;64.16
34237;BME280;20501;45.956;13.632;2023-04-19T07:12:44;100616.44;;;13.94;63.80
34237;BME280;20501;45.956;13.632;2023-04-19T07:15:09;100619.06;;;13.77;62.22
34237;BME280;20501;45.956;13.632;2023-04-19T07:17:35;100607.50;;;14.45;61.52
34237;BME280;20501;45.956;13.632;2023-04-19T07:20:02;100607.59;;;14.69;60.40
34237;BME280;20501;45.956;13.632;2023-04-19T07:22:29;100608.50;;;14.95;60.05
34237;BME280;20501;45.956;13.632;2023-04-19T07:24:54;100609.84;;;14.99;59.36
34237;BME280;20501;45.956;13.632;2023-04-19T07:27:20;100602.19;;;14.86;56.49
34237;BME280;20501;45.956;13.632;2023-04-19T07:29:45;100599.81;;;14.83;56.50
34237;BME280;20501;45.956;13.632;2023-04-19T07:32:11;100597.81;;;15.10;57.08
34237;BME280;20501;45.956;13.632;2023-04-19T07:34:38;100599.66;;;15.01;56.85
34237;BME280;20501;45.956;13.632;2023-04-19T07:37:05;100587.91;;;14.84;56.35
34237;BME280;20501;45.956;13.632;2023-04-19T07:39:31;100592.84;;;14.89;57.21
34237;BME280;20501;45.956;13.632;2023-04-19T07:41:56;100603.41;;;15.00;57.63
34237;BME280;20501;45.956;13.632;2023-04-19T07:44:22;100594.69;;;14.80;56.65
34237;BME280;20501;45.956;13.632;2023-04-19T07:46:47;100593.66;;;14.73;56.45
34237;BME280;20501;45.956;13.632;2023-04-19T07:49:13;100589.94;;;14.82;58.04
34237;BME280;20501;45.956;13.632;2023-04-19T07:51:38;100591.34;;;15.19;57.38
34237;BME280;20501;45.956;13.632;2023-04-19T07:54:04;100589.13;;;15.31;54.16
34237;BME280;20501;45.956;13.632;2023-04-19T07:56:29;100589.47;;;15.36;53.01
34237;BME280;20501;45.956;13.632;2023-04-19T07:58:54;100588.72;;;15.67;52.22
34237;BME280;20501;45.956;13.632;2023-04-19T08:01:20;100589.22;;;15.71;52.53
34237;BME280;20501;45.956;13.632;2023-04-19T08:03:46;100589.59;;;15.59;52.90
34237;BME280;20501;45.956;13.632;2023-04-19T08:06:11;100583.97;;;15.61;54.10
34237;BME280;20501;45.956;13.632;2023-04-19T08:08:38;100590.44;;;15.68;53.68
34237;BME280;20501;45.956;13.632;2023-04-19T08:11:04;100581.06;;;15.71;54.27
34237;BME280;20501;45.956;13.632;2023-04-19T08:13:30;100581.22;;;15.77;51.48
34237;BME280;20501;45.956;13.632;2023-04-19T08:15:55;100581.03;;;15.79;52.62
34237;BME280;20501;45.956;13.632;2023-04-19T08:18:21;100567.41;;;15.79;50.18
34237;BME280;20501;45.956;13.632;2023-04-19T08:20:46;100576.75;;;15.93;48.66
34237;BME280;20501;45.956;13.632;2023-04-19T08:23:12;100574.72;;;15.95;50.00
34237;BME280;20501;45.956;13.632;2023-04-19T08:25:38;100574.06;;;15.85;49.10
34237;BME280;20501;45.956;13.632;2023-04-19T08:28:04;100571.31;;;15.93;50.15
34237;BME280;20501;45.956;13.632;2023-04-19T08:30:30;100567.59;;;15.77;50.66
34237;BME280;20501;45.956;13.632;2023-04-19T08:32:55;100566.72;;;15.77;51.06
34237;BME280;20501;45.956;13.632;2023-04-19T08:35:21;100563.28;;;16.00;49.93
34237;BME280;20501;45.956;13.632;2023-04-19T08:37:47;100567.56;;;15.94;51.03
34237;BME280;20501;45.956;13.632;2023-04-19T08:40:13;100562.16;;;15.77;50.83
34237;BME280;20501;45.956;13.632;2023-04-19T08:42:41;100563.50;;;15.90;51.18
34237;BME280;20501;45.956;13.632;2023-04-19T08:45:07;100556.31;;;15.97;50.02
34237;BME280;20501;45.956;13.632;2023-04-19T08:47:33;100554.97;;;16.01;49.19
34237;BME280;20501;45.956;13.632;2023-04-19T08:50:08;100549.50;;;16.01;50.11
34237;BME280;20501;45.956;13.632;2023-04-19T08:52:35;100547.22;;;16.13;50.62
34237;BME280;20501;45.956;13.632;2023-04-19T08:55:05;100546.28;;;15.98;49.49
34237;BME280;20501;45.956;13.632;2023-04-19T08:57:32;100546.59;;;16.03;50.52
34237;BME280;20501;45.956;13.632;2023-04-19T08:59:58;100537.84;;;16.16;50.68
34237;BME280;20501;45.956;13.632;2023-04-19T09:02:24;100535.63;;;16.19;48.98
34237;BME280;20501;45.956;13.632;2023-04-19T09:04:50;100531.56;;;16.15;51.91
34237;BME280;20501;45.956;13.632;2023-04-19T09:07:25;100531.50;;;16.23;48.92
34237;BME280;20501;45.956;13.632;2023-04-19T09:10:11;100527.41;;;16.28;47.90
34237;BME280;20501;45.956;13.632;2023-04-19T09:12:37;100526.47;;;16.44;48.17
34237;BME280;20501;45.956;13.632;2023-04-19T09:15:05;100521.50;;;16.47;48.36
34237;BME280;20501;45.956;13.632;2023-04-19T09:17:34;100523.59;;;16.37;46.22
34237;BME280;20501;45.956;13.632;2023-04-19T09:19:59;100516.53;;;16.51;47.20
34237;BME280;20501;45.956;13.632;2023-04-19T09:22:25;100520.13;;;16.51;46.24
34237;BME280;20501;45.956;13.632;2023-04-19T09:24:51;100509.63;;;16.40;47.36
34237;BME280;20501;45.956;13.632;2023-04-19T09:27:30;100517.00;;;16.54;46.26
34237;BME280;20501;45.956;13.632;2023-04-19T09:29:58;100513.50;;;16.46;45.90
34237;BME280;20501;45.956;13.632;2023-04-19T09:32:24;100509.25;;;16.43;45.87
34237;BME280;20501;45.956;13.632;2023-04-19T09:34:54;100496.22;;;16.53;45.49
34237;BME280;20501;45.956;13.632;2023-04-19T09:37:21;100501.06;;;16.43;46.63
34237;BME280;20501;45.956;13.632;2023-04-19T09:39:47;100491.19;;;16.42;48.11
34237;BME280;20501;45.956;13.632;2023-04-19T09:42:12;100500.59;;;16.63;46.13
34237;BME280;20501;45.956;13.632;2023-04-19T09:44:38;100484.75;;;16.58;45.00
34237;BME280;20501;45.956;13.632;2023-04-19T09:47:23;100491.19;;;16.65;46.12
34237;BME280;20501;45.956;13.632;2023-04-19T09:50:11;100477.25;;;16.83;45.67
34237;BME280;20501;45.956;13.632;2023-04-19T09:52:37;100475.25;;;16.77;45.99
34237;BME280;20501;45.956;13.632;2023-04-19T09:55:04;100477.13;;;16.77;44.79
34237;BME280;20501;45.956;13.632;2023-04-19T09:57:32;100483.78;;;16.74;45.56
34237;BME280;20501;45.956;13.632;2023-04-19T09:59:58;100477.84;;;16.70;46.70
34237;BME280;20501;45.956;13.632;2023-04-19T10:02:25;100482.03;;;16.58;45.72
34237;BME280;20501;45.956;13.632;2023-04-19T10:04:54;100473.09;;;16.49;46.46
34237;BME280;20501;45.956;13.632;2023-04-19T10:07:21;100470.59;;;16.63;45.37
34237;BME280;20501;45.956;13.632;2023-04-19T10:09:49;100473.44;;;16.69;45.45
34237;BME280;20501;45.956;13.632;2023-04-19T10:12:15;100476.66;;;16.73;45.58
34237;BME280;20501;45.956;13.632;2023-04-19T10:14:41;100473.50;;;16.84;45.44
34237;BME280;20501;45.956;13.632;2023-04-19T10:17:07;100466.63;;;16.89;44.93
34237;BME280;20501;45.956;13.632;2023-04-19T10:19:34;100463.50;;;16.77;47.13
34237;BME280;20501;45.956;13.632;2023-04-19T10:22:00;100460.78;;;16.77;46.42
34237;BME280;20501;45.956;13.632;2023-04-19T10:24:29;100463.19;;;16.95;46.11
34237;BME280;20501;45.956;13.632;2023-04-19T10:27:15;100455.88;;;16.72;48.98
34237;BME280;20501;45.956;13.632;2023-04-19T10:32:16;100452.13;;;16.73;48.50
34237;BME280;20501;45.956;13.632;2023-04-19T10:34:41;100446.47;;;16.75;48.57
34237;BME280;20501;45.956;13.632;2023-04-19T10:37:10;100439.41;;;16.80;47.33
34237;BME280;20501;45.956;13.632;2023-04-19T10:39:42;100429.84;;;16.84;47.27
34237;BME280;20501;45.956;13.632;2023-04-19T10:42:08;100435.47;;;16.83;48.20
34237;BME280;20501;45.956;13.632;2023-04-19T10:44:33;100422.75;;;16.75;48.84
34237;BME280;20501;45.956;13.632;2023-04-19T10:46:59;100413.66;;;16.83;47.92
34237;BME280;20501;45.956;13.632;2023-04-19T10:49:26;100413.38;;;16.93;47.92
34237;BME280;20501;45.956;13.632;2023-04-19T10:51:52;100406.94;;;16.94;49.39
34237;BME280;20501;45.956;13.632;2023-04-19T10:54:33;100403.75;;;17.05;46.97
34237;BME280;20501;45.956;13.632;2023-04-19T10:57:08;100401.59;;;16.92;47.71
34237;BME280;20501;45.956;13.632;2023-04-19T10:59:38;100393.53;;;16.84;48.63
34237;BME280;20501;45.956;13.632;2023-04-19T11:07:15;100373.25;;;17.31;47.64
34237;BME280;20501;45.956;13.632;2023-04-19T11:09:46;100375.41;;;17.21;48.00
34237;BME280;20501;45.956;13.632;2023-04-19T11:12:19;100372.19;;;17.47;47.51
34237;BME280;20501;45.956;13.632;2023-04-19T11:14:52;100367.38;;;17.35;48.36
34237;BME280;20501;45.956;13.632;2023-04-19T11:17:28;100369.06;;;17.51;47.48
34237;BME280;20501;45.956;13.632;2023-04-19T11:20:00;100365.22;;;17.45;49.53
34237;BME280;20501;45.956;13.632;2023-04-19T11:22:33;100355.72;;;17.41;49.30
34237;BME280;20501;45.956;13.632;2023-04-19T11:27:32;100354.28;;;17.45;48.50
34237;BME280;20501;45.956;13.632;2023-04-19T11:30:04;100360.63;;;17.30;48.38
34237;BME280;20501;45.956;13.632;2023-04-19T11:32:31;100347.84;;;17.16;48.22
34237;BME280;20501;45.956;13.632;2023-04-19T11:34:57;100348.50;;;17.18;48.63
34237;BME280;20501;45.956;13.632;2023-04-19T11:37:22;100347.06;;;17.07;49.69
34237;BME280;20501;45.956;13.632;2023-04-19T11:39:48;100345.34;;;16.91;50.36
34237;BME280;20501;45.956;13.632;2023-04-19T11:42:17;100339.84;;;17.14;48.54
34237;BME280;20501;45.956;13.632;2023-04-19T11:44:50;100341.72;;;17.14;49.54
34237;BME280;20501;45.956;13.632;2023-04-19T11:47:16;100344.16;;;17.24;47.92
34237;BME280;20501;45.956;13.632;2023-04-19T11:49:42;100337.13;;;17.14;48.47
34237;BME280;20501;45.956;13.632;2023-04-19T11:52:07;100336.19;;;17.22;49.37
34237;BME280;20501;45.956;13.632;2023-04-19T11:54:33;100333.63;;;17.21;48.84
34237;BME280;20501;45.956;13.632;2023-04-19T11:57:06;100329.94;;;17.28;49.12
34237;BME280;20501;45.956;13.632;2023-04-19T11:59:33;100329.06;;;17.28;46.64
34237;BME280;20501;45.956;13.632;2023-04-19T12:02:10;100320.50;;;17.31;48.10
34237;BME280;20501;45.956;13.632;2023-04-19T12:04:36;100318.66;;;17.31;46.53
34237;BME280;20501;45.956;13.632;2023-04-19T12:07:03;100323.94;;;17.18;47.35
34237;BME280;20501;45.956;13.632;2023-04-19T12:09:32;100319.03;;;17.13;47.68
34237;BME280;20501;45.956;13.632;2023-04-19T12:11:57;100320.44;;;17.09;46.60
34237;BME280;20501;45.956;13.632;2023-04-19T12:14:23;100315.84;;;17.10;46.27
34237;BME280;20501;45.956;13.632;2023-04-19T12:19:43;100316.38;;;16.90;47.66
34237;BME280;20501;45.956;13.632;2023-04-19T12:22:17;100318.38;;;16.81;47.83
34237;BME280;20501;45.956;13.632;2023-04-19T12:24:50;100309.88;;;16.76;47.66
34237;BME280;20501;45.956;13.632;2023-04-19T12:27:16;100311.13;;;16.74;49.02
34237;BME280;20501;45.956;13.632;2023-04-19T12:29:42;100312.13;;;16.58;50.67
34237;BME280;20501;45.956;13.632;2023-04-19T12:32:09;100315.75;;;16.35;58.06
34237;BME280;20501;45.956;13.632;2023-04-19T12:34:34;100324.28;;;16.32;54.60
34237;BME280;20501;45.956;13.632;2023-04-19T12:37:00;100325.13;;;16.17;56.58
34237;BME280;20501;45.956;13.632;2023-04-19T12:39:27;100319.66;;;16.17;61.05
34237;BME280;20501;45.956;13.632;2023-04-19T12:41:53;100321.59;;;16.08;61.66
34237;BME280;20501;45.956;13.632;2023-04-19T12:44:18;100317.66;;;16.11;62.27
34237;BME280;20501;45.956;13.632;2023-04-19T12:46:44;100310.59;;;16.02;59.63
34237;BME280;20501;45.956;13.632;2023-04-19T12:49:09;100309.97;;;16.15;53.10
34237;BME280;20501;45.956;13.632;2023-04-19T12:51:35;100307.31;;;16.06;58.19